createdAt,value
2022-12-19T00:01:16.474Z,115.28
2022-12-19T00:03:45.135Z,119.65
2022-12-19T00:06:12.476Z,115.93
2022-12-19T00:08:43.117Z,118.57
2022-12-19T00:11:10.505Z,113.40
2022-12-19T00:13:40.176Z,112.38
2022-12-19T00:16:10.829Z,110.72
2022-12-19T00:18:39.688Z,114.00
2022-12-19T00:21:06.556Z,109.53
2022-12-19T00:23:34.381Z,109.35
2022-12-19T00:26:21.802Z,110.20
2022-12-19T00:28:52.052Z,109.97
2022-12-19T00:31:19.063Z,105.47
2022-12-19T00:33:46.237Z,103.10
2022-12-19T00:36:15.361Z,102.63
2022-12-19T00:38:47.485Z,103.43
2022-12-19T00:41:15.064Z,96.85
2022-12-19T00:43:42.397Z,101.28
2022-12-19T00:46:10.450Z,100.40
2022-12-19T00:48:37.505Z,97.25
2022-12-19T00:51:10.230Z,98.90
2022-12-19T00:53:37.472Z,100.90
2022-12-19T00:56:05.364Z,99.07
2022-12-19T00:58:35.520Z,97.70
2022-12-19T01:01:07.559Z,97.63
2022-12-19T01:03:34.685Z,97.75
2022-12-19T01:06:01.464Z,90.85
2022-12-19T01:08:28.847Z,92.85
2022-12-19T01:10:57.228Z,91.75
2022-12-19T01:13:24.524Z,93.72
2022-12-19T01:15:51.260Z,88.20
2022-12-19T01:18:18.335Z,88.10
2022-12-19T01:20:47.407Z,89.10
2022-12-19T01:23:15.836Z,87.07
2022-12-19T01:25:45.919Z,86.82
2022-12-19T01:28:14.029Z,85.43
2022-12-19T01:30:41.735Z,81.97
2022-12-19T01:33:10.636Z,85.95
2022-12-19T01:35:37.367Z,83.97
2022-12-19T01:38:08.735Z,83.78
2022-12-19T01:40:35.843Z,80.20
2022-12-19T01:43:04.374Z,78.10
2022-12-19T01:45:37.425Z,82.43
2022-12-19T01:48:15.652Z,81.93
2022-12-19T01:51:02.935Z,79.18
2022-12-19T01:53:33.780Z,77.28
2022-12-19T01:56:08.984Z,79.47
2022-12-19T01:58:37.793Z,79.68
2022-12-19T02:01:04.719Z,76.75
2022-12-19T02:03:32.556Z,76.30
2022-12-19T02:05:59.319Z,77.97
2022-12-19T02:08:26.436Z,76.47
2022-12-19T02:10:53.144Z,74.35
2022-12-19T02:13:21.015Z,77.03
2022-12-19T02:15:59.839Z,77.80
2022-12-19T02:18:40.159Z,78.55
2022-12-19T02:21:59.824Z,80.45
2022-12-19T02:24:26.901Z,75.82
2022-12-19T02:26:57.715Z,78.28
2022-12-19T02:29:27.797Z,77.43
2022-12-19T02:32:04.940Z,80.40
2022-12-19T02:34:34.583Z,77.78
2022-12-19T02:37:07.825Z,78.10
2022-12-19T02:39:49.077Z,74.85
2022-12-19T02:42:22.842Z,72.85
2022-12-19T02:44:50.665Z,74.43
2022-12-19T02:47:17.432Z,72.38
2022-12-19T02:49:44.531Z,71.22
2022-12-19T02:52:20.388Z,72.78
2022-12-19T02:54:52.900Z,74.07
2022-12-19T02:57:28.772Z,73.47
2022-12-19T03:00:13.585Z,75.10
2022-12-19T03:03:00.421Z,75.82
2022-12-19T03:05:43.617Z,73.07
2022-12-19T03:08:16.117Z,72.70
2022-12-19T03:10:44.399Z,76.38
2022-12-19T03:13:25.660Z,72.78
2022-12-19T03:15:52.777Z,72.75
2022-12-19T03:18:19.838Z,72.22
2022-12-19T03:21:04.435Z,70.70
2022-12-19T03:23:31.220Z,68.55
2022-12-19T03:26:01.802Z,68.03
2022-12-19T03:28:51.674Z,71.15
2022-12-19T03:31:19.883Z,68.35
2022-12-19T03:33:46.804Z,66.40
2022-12-19T03:36:16.153Z,67.82
2022-12-19T03:38:43.924Z,68.95
2022-12-19T03:41:11.197Z,66.90
2022-12-19T03:43:37.928Z,65.45
2022-12-19T03:46:06.824Z,65.22
2022-12-19T03:48:38.986Z,64.47
2022-12-19T03:51:24.736Z,62.88
2022-12-19T03:53:54.294Z,63.65
2022-12-19T03:56:24.266Z,60.17
2022-12-19T03:58:52.716Z,63.15
2022-12-19T04:01:21.659Z,61.80
2022-12-19T04:03:48.813Z,63.17
2022-12-19T04:06:15.836Z,63.22
2022-12-19T04:08:42.554Z,64.65
2022-12-19T04:11:14.170Z,62.35
2022-12-19T04:13:54.271Z,64.43
2022-12-19T04:16:32.927Z,63.20
2022-12-19T04:19:03.842Z,65.00
2022-12-19T04:21:33.012Z,62.10
2022-12-19T04:24:06.259Z,63.10
2022-12-19T04:26:33.391Z,66.75
2022-12-19T04:29:01.723Z,66.85
2022-12-19T04:31:28.779Z,60.92
2022-12-19T04:33:55.559Z,64.00
2022-12-19T04:36:23.114Z,67.78
2022-12-19T04:38:49.807Z,70.70
2022-12-19T04:41:16.851Z,66.53
2022-12-19T04:43:43.566Z,65.88
2022-12-19T04:46:10.659Z,66.18
2022-12-19T04:48:37.487Z,68.55
2022-12-19T04:51:04.820Z,68.00
2022-12-19T04:53:31.746Z,73.50
2022-12-19T04:56:05.934Z,70.05
2022-12-19T04:58:32.936Z,71.38
2022-12-19T05:01:04.004Z,71.88
2022-12-19T05:03:30.796Z,71.55
2022-12-19T05:06:09.060Z,71.05
2022-12-19T05:08:36.630Z,67.82
2022-12-19T05:11:04.013Z,69.78
2022-12-19T05:13:30.816Z,69.82
2022-12-19T05:16:05.896Z,67.60
2022-12-19T05:18:32.922Z,67.45
2022-12-19T05:20:59.949Z,70.18
2022-12-19T05:23:26.799Z,68.60
2022-12-19T05:25:53.823Z,69.07
2022-12-19T05:28:20.851Z,67.25
2022-12-19T05:30:52.097Z,70.28
2022-12-19T05:33:19.103Z,70.93
2022-12-19T05:35:46.121Z,69.20
2022-12-19T05:38:12.829Z,69.63
2022-12-19T05:40:39.848Z,69.20
2022-12-19T05:43:06.656Z,71.13
2022-12-19T05:45:33.681Z,72.05
2022-12-19T05:48:01.557Z,70.80
2022-12-19T05:50:28.797Z,71.15
2022-12-19T05:52:55.600Z,69.38
2022-12-19T05:55:22.638Z,68.60
2022-12-19T05:57:49.371Z,71.18
2022-12-19T06:00:16.581Z,66.00
2022-12-19T06:02:46.490Z,66.57
2022-12-19T06:05:13.654Z,67.95
2022-12-19T06:07:40.387Z,66.25
2022-12-19T06:10:07.788Z,67.28
2022-12-19T06:12:34.542Z,72.20
2022-12-19T06:15:01.594Z,74.28
2022-12-19T06:17:28.384Z,76.28
2022-12-19T06:19:55.444Z,71.45
2022-12-19T06:22:22.240Z,70.30
2022-12-19T06:24:49.374Z,71.30
2022-12-19T06:27:16.122Z,70.72
2022-12-19T06:29:43.115Z,73.32
2022-12-19T06:32:09.852Z,73.68
2022-12-19T06:35:03.352Z,75.93
2022-12-19T06:37:24.488Z,78.63
2022-12-19T06:39:51.529Z,79.00
2022-12-19T06:42:23.936Z,78.38
2022-12-19T06:44:55.925Z,79.85
2022-12-19T06:47:23.919Z,84.20
2022-12-19T06:49:51.034Z,83.40
2022-12-19T06:52:18.013Z,83.60
2022-12-19T06:54:45.167Z,84.13
2022-12-19T06:57:11.934Z,89.22
2022-12-19T06:59:38.995Z,93.07
2022-12-19T07:02:12.000Z,88.85
2022-12-19T07:04:41.732Z,90.25
2022-12-19T07:07:08.541Z,88.55
2022-12-19T07:09:35.641Z,89.03
2022-12-19T07:12:02.514Z,91.30
2022-12-19T07:14:29.548Z,92.63
2022-12-19T07:16:56.560Z,96.22
2022-12-19T07:19:23.781Z,93.03
2022-12-19T07:21:50.540Z,93.43
2022-12-19T07:24:17.550Z,101.38
2022-12-19T07:26:44.365Z,102.53
2022-12-19T07:29:11.590Z,96.38
2022-12-19T07:31:38.614Z,98.63
2022-12-19T07:34:05.740Z,99.50
2022-12-19T07:36:32.581Z,97.10
2022-12-19T07:38:59.753Z,98.88
2022-12-19T07:41:26.561Z,97.25
2022-12-19T07:43:53.576Z,94.65
2022-12-19T07:46:21.680Z,97.20
2022-12-19T07:48:48.819Z,100.53
2022-12-19T07:51:15.617Z,97.53
2022-12-19T07:53:42.651Z,94.78
2022-12-19T07:56:09.386Z,94.28
2022-12-19T07:58:36.889Z,93.82
2022-12-19T08:01:03.841Z,99.85
2022-12-19T08:03:31.196Z,97.35
2022-12-19T08:06:05.092Z,101.25
2022-12-19T08:08:33.014Z,104.03
2022-12-19T08:11:13.847Z,106.38
2022-12-19T08:13:46.479Z,108.40
2022-12-19T08:16:14.284Z,110.20
2022-12-19T08:18:41.397Z,133.35
2022-12-19T08:21:09.067Z,131.07
2022-12-19T08:23:36.203Z,131.10
2022-12-19T08:26:04.711Z,149.85
2022-12-19T08:28:32.634Z,154.00
2022-12-19T08:31:09.660Z,148.95
2022-12-19T08:33:36.943Z,156.60
2022-12-19T08:36:08.104Z,160.50
2022-12-19T08:38:35.584Z,160.98
2022-12-19T08:41:02.445Z,166.02
2022-12-19T08:43:30.461Z,164.65
2022-12-19T08:45:57.517Z,165.88
2022-12-19T08:48:24.697Z,169.18
2022-12-19T08:50:56.763Z,167.50
2022-12-19T08:53:26.613Z,158.70
2022-12-19T08:55:57.734Z,157.02
2022-12-19T08:58:25.274Z,152.77
2022-12-19T09:01:01.700Z,152.18
2022-12-19T09:03:40.519Z,146.73
2022-12-19T09:06:19.677Z,149.80
2022-12-19T09:08:47.066Z,153.02
2022-12-19T09:11:15.662Z,146.70
2022-12-19T09:13:43.213Z,148.95
2022-12-19T09:16:19.930Z,139.98
2022-12-19T09:18:48.957Z,138.30
2022-12-19T09:21:17.016Z,142.07
2022-12-19T09:23:48.019Z,141.52
2022-12-19T09:26:16.395Z,136.38
2022-12-19T09:28:45.092Z,137.65
2022-12-19T09:31:13.948Z,138.20
2022-12-19T09:33:43.556Z,135.15
2022-12-19T09:36:19.052Z,132.43
2022-12-19T09:38:47.091Z,136.57
2022-12-19T09:41:20.706Z,137.73
2022-12-19T09:44:13.482Z,142.32
2022-12-19T09:46:54.120Z,146.38
2022-12-19T09:49:23.385Z,155.10
2022-12-19T09:52:03.417Z,168.68
2022-12-19T09:54:46.202Z,171.32
2022-12-19T09:57:42.200Z,182.77
2022-12-19T10:00:13.985Z,179.25
2022-12-19T10:03:02.095Z,166.63
2022-12-19T10:06:31.343Z,171.00
2022-12-19T10:09:17.552Z,166.30
2022-12-19T10:11:46.326Z,150.60
2022-12-19T10:15:08.678Z,144.95
2022-12-19T10:18:01.957Z,140.45
2022-12-19T10:20:30.787Z,131.10
2022-12-19T10:23:04.001Z,132.55
2022-12-19T10:25:49.224Z,125.05
2022-12-19T10:28:32.877Z,125.55
2022-12-19T10:31:21.523Z,119.05
2022-12-19T10:33:52.420Z,113.88
2022-12-19T10:36:19.236Z,108.93
2022-12-19T10:39:04.089Z,107.32
2022-12-19T10:41:31.690Z,105.00
2022-12-19T10:44:06.549Z,99.75
2022-12-19T10:46:41.964Z,96.95
2022-12-19T10:49:22.138Z,92.55
2022-12-19T10:51:59.676Z,90.65
2022-12-19T10:54:37.017Z,81.32
2022-12-19T10:57:19.048Z,83.10
2022-12-19T11:00:05.917Z,79.85
2022-12-19T11:02:34.199Z,79.40
2022-12-19T11:05:02.089Z,78.32
2022-12-19T11:07:28.940Z,72.75
2022-12-19T11:10:15.853Z,71.63
2022-12-19T11:16:41.790Z,67.70
2022-12-19T11:29:25.558Z,60.92
2022-12-19T11:30:05.577Z,51.45
2022-12-19T11:30:05.878Z,58.63
2022-12-19T11:32:42.220Z,45.67
2022-12-19T11:35:16.070Z,44.58
2022-12-19T11:37:49.592Z,43.08
2022-12-19T11:40:32.916Z,39.10
2022-12-19T11:46:17.694Z,38.25
2022-12-19T11:49:17.934Z,37.67
2022-12-19T11:55:05.577Z,33.42
2022-12-19T11:57:32.350Z,33.95
2022-12-19T12:00:04.644Z,35.33
2022-12-19T12:02:54.031Z,33.30
2022-12-19T12:05:47.747Z,31.88
2022-12-19T12:11:39.142Z,32.05
2022-12-19T12:17:49.641Z,30.77
2022-12-19T12:27:33.505Z,28.45
2022-12-19T12:31:00.748Z,29.35
2022-12-19T12:31:15.117Z,25.42
2022-12-19T12:31:16.107Z,28.33
2022-12-19T12:31:49.896Z,26.10
2022-12-19T12:32:00.975Z,24.23
2022-12-19T12:35:40.781Z,24.55
2022-12-19T12:38:43.403Z,25.38
2022-12-19T12:41:47.018Z,23.58
2022-12-19T12:44:14.137Z,24.83
2022-12-19T12:46:49.250Z,25.58
2022-12-19T12:49:33.761Z,24.58
2022-12-19T12:52:00.809Z,23.67
2022-12-19T12:54:32.478Z,24.67
2022-12-19T12:56:59.667Z,24.45
2022-12-19T12:59:28.395Z,23.90
2022-12-19T13:02:07.906Z,23.42
2022-12-19T13:04:36.429Z,22.85
2022-12-19T13:07:13.080Z,22.67
2022-12-19T13:09:39.775Z,24.80
2022-12-19T13:12:44.146Z,23.65
2022-12-19T13:15:20.170Z,22.98
2022-12-19T13:17:47.221Z,23.85
2022-12-19T13:20:19.127Z,23.10
2022-12-19T13:23:23.687Z,21.83
2022-12-19T13:25:54.563Z,23.55
2022-12-19T13:28:21.745Z,25.40
2022-12-19T13:31:20.621Z,24.05
2022-12-19T13:33:55.647Z,22.02
2022-12-19T13:39:48.639Z,23.30
2022-12-19T13:40:07.520Z,23.27
2022-12-19T13:43:10.643Z,20.63
2022-12-19T13:45:40.578Z,20.02
2022-12-19T13:48:12.982Z,21.50
2022-12-19T13:50:40.416Z,21.27
2022-12-19T13:53:17.475Z,21.80
2022-12-19T13:55:44.646Z,21.45
2022-12-19T13:58:46.958Z,21.55
2022-12-19T14:01:21.196Z,21.67
2022-12-19T14:03:48.870Z,23.25
2022-12-19T14:06:24.059Z,21.67
2022-12-19T14:09:46.190Z,22.52
2022-12-19T14:12:28.943Z,22.70
2022-12-19T14:14:48.209Z,22.73
2022-12-19T14:17:17.017Z,22.90
2022-12-19T14:19:45.601Z,23.52
2022-12-19T14:22:25.342Z,23.70
2022-12-19T14:25:33.308Z,24.40
2022-12-19T14:28:24.350Z,23.15
2022-12-19T14:30:36.166Z,23.15
2022-12-19T14:33:46.161Z,25.00
2022-12-19T14:36:14.581Z,23.33
2022-12-19T14:39:26.316Z,23.08
2022-12-19T14:42:02.724Z,24.30
2022-12-19T14:51:51.741Z,22.38
2022-12-19T14:54:15.012Z,23.80
2022-12-19T14:54:21.864Z,22.85
2022-12-19T14:54:48.291Z,24.00
2022-12-19T14:56:36.368Z,23.00
2022-12-19T14:59:22.772Z,24.25
2022-12-19T15:01:54.905Z,24.95
2022-12-19T15:04:52.890Z,24.60
2022-12-19T15:07:21.994Z,27.85
2022-12-19T15:10:58.447Z,26.20
2022-12-19T15:14:54.392Z,27.27
2022-12-19T15:16:00.809Z,27.65
2022-12-19T15:18:41.146Z,27.85
2022-12-19T15:21:10.517Z,28.70
2022-12-19T15:23:37.585Z,27.00
2022-12-19T15:26:07.270Z,29.17
2022-12-19T15:28:39.092Z,26.73
2022-12-19T15:31:11.015Z,25.33
2022-12-19T15:33:48.038Z,26.77
2022-12-19T15:36:24.917Z,25.92
2022-12-19T15:38:52.045Z,27.08
2022-12-19T15:41:23.108Z,28.08
2022-12-19T15:44:03.812Z,27.23
2022-12-19T15:46:31.889Z,27.27
2022-12-19T15:48:58.965Z,25.73
2022-12-19T15:51:25.669Z,27.83
2022-12-19T15:53:52.717Z,24.52
2022-12-19T15:56:28.346Z,25.30
2022-12-19T15:58:56.725Z,23.95
2022-12-19T16:01:23.600Z,24.88
2022-12-19T16:03:51.147Z,23.73
2022-12-19T16:06:18.216Z,22.25
2022-12-19T16:08:45.376Z,24.05
2022-12-19T16:11:20.581Z,24.15
2022-12-19T16:13:51.579Z,22.13
2022-12-19T16:16:18.473Z,24.30
2022-12-19T16:18:45.793Z,22.13
2022-12-19T16:21:34.222Z,22.17
2022-12-19T16:24:01.652Z,20.17
2022-12-19T16:26:31.615Z,21.52
2022-12-19T16:28:58.807Z,22.83
2022-12-19T16:31:26.262Z,21.33
2022-12-19T16:33:53.659Z,21.70
2022-12-19T16:36:20.563Z,22.33
2022-12-19T16:38:47.660Z,22.17
2022-12-19T16:41:24.516Z,21.73
2022-12-19T16:43:51.923Z,21.95
2022-12-19T16:46:20.821Z,23.85
2022-12-19T16:48:48.271Z,22.88
2022-12-19T16:51:23.535Z,23.17
2022-12-19T16:53:52.047Z,22.80
2022-12-19T16:56:35.853Z,22.95
2022-12-19T16:59:04.935Z,22.67
2022-12-19T17:01:31.914Z,23.00
2022-12-19T17:03:59.149Z,22.73
2022-12-19T17:06:26.273Z,22.90
2022-12-19T17:08:53.332Z,21.85
2022-12-19T17:11:21.876Z,21.67
2022-12-19T17:14:10.655Z,21.75
2022-12-19T17:16:37.654Z,21.40
2022-12-19T17:19:04.812Z,23.75
2022-12-19T17:21:31.597Z,25.35
2022-12-19T17:23:58.640Z,22.92
2022-12-19T17:26:25.411Z,23.98
2022-12-19T17:28:52.478Z,24.55
2022-12-19T17:31:22.667Z,24.23
2022-12-19T17:33:49.898Z,26.27
2022-12-19T17:36:23.115Z,25.75
2022-12-19T17:38:51.640Z,26.60
2022-12-19T17:41:18.419Z,28.38
2022-12-19T17:43:45.551Z,27.10
2022-12-19T17:46:19.566Z,29.30
2022-12-19T17:48:50.250Z,26.73
2022-12-19T17:51:17.789Z,26.30
2022-12-19T17:53:45.677Z,26.13
2022-12-19T17:56:14.121Z,26.52
2022-12-19T17:58:41.138Z,25.77
2022-12-19T18:01:18.327Z,27.50
2022-12-19T18:03:46.022Z,26.42
2022-12-19T18:06:12.923Z,25.10
2022-12-19T18:08:40.058Z,24.55
2022-12-19T18:11:10.307Z,24.40
2022-12-19T18:13:37.340Z,25.00
2022-12-19T18:16:04.136Z,23.75
2022-12-19T18:18:34.743Z,24.20
2022-12-19T18:21:01.884Z,24.83
2022-12-19T18:23:30.502Z,22.83
2022-12-19T18:26:01.545Z,22.73
2022-12-19T18:28:29.866Z,21.08
2022-12-19T18:31:03.260Z,20.48
2022-12-19T18:33:35.199Z,20.08
2022-12-19T18:36:01.971Z,20.92
2022-12-19T18:38:29.098Z,18.92
2022-12-19T18:40:55.858Z,18.70
2022-12-19T18:43:23.039Z,18.73
2022-12-19T18:45:52.934Z,19.30
2022-12-19T18:48:25.547Z,19.15
2022-12-19T18:50:56.490Z,18.10
2022-12-19T18:53:26.501Z,18.50
2022-12-19T18:55:56.548Z,17.50
2022-12-19T18:58:23.627Z,17.92
2022-12-19T19:00:55.615Z,18.73
2022-12-19T19:03:33.889Z,17.30
2022-12-19T19:06:00.686Z,18.33
2022-12-19T19:08:29.695Z,17.88
2022-12-19T19:10:56.527Z,17.63
2022-12-19T19:13:24.236Z,18.23
2022-12-19T19:15:58.871Z,18.77
2022-12-19T19:18:30.860Z,18.70
2022-12-19T19:21:01.188Z,19.08
2022-12-19T19:23:41.689Z,18.35
2022-12-19T19:26:08.432Z,19.23
2022-12-19T19:28:38.731Z,19.02
2022-12-19T19:31:06.709Z,19.52
2022-12-19T19:33:36.022Z,17.35
2022-12-19T19:36:11.254Z,18.77
2022-12-19T19:38:40.155Z,19.90
2022-12-19T19:41:06.930Z,17.38
2022-12-19T19:43:35.598Z,20.10
2022-12-19T19:46:02.746Z,18.23
2022-12-19T19:48:30.426Z,18.80
2022-12-19T19:50:57.287Z,17.20
2022-12-19T19:53:24.399Z,20.58
2022-12-19T19:56:09.784Z,18.77
2022-12-19T19:58:37.027Z,18.08
2022-12-19T20:01:08.737Z,18.33
2022-12-19T20:03:35.995Z,16.73
2022-12-19T20:06:03.101Z,17.38
2022-12-19T20:08:36.974Z,18.25
2022-12-19T20:11:05.883Z,16.95
2022-12-19T20:13:33.097Z,16.73
2022-12-19T20:16:04.413Z,17.13
2022-12-19T20:18:31.484Z,18.52
2022-12-19T20:20:58.246Z,17.20
2022-12-19T20:23:25.366Z,17.23
2022-12-19T20:25:52.146Z,16.67
2022-12-19T20:28:19.315Z,18.73
2022-12-19T20:30:47.209Z,17.35
2022-12-19T20:33:14.449Z,18.25
2022-12-19T20:35:41.291Z,17.63
2022-12-19T20:38:08.567Z,18.55
2022-12-19T20:40:35.339Z,19.55
2022-12-19T20:43:02.368Z,17.90
2022-12-19T20:45:29.181Z,17.15
2022-12-19T20:47:56.250Z,18.55
2022-12-19T20:50:24.120Z,19.70
2022-12-19T20:52:51.164Z,21.80
2022-12-19T20:55:17.865Z,21.10
2022-12-19T20:57:44.856Z,21.05
2022-12-19T21:00:13.128Z,22.45
2022-12-19T21:03:17.282Z,20.40
2022-12-19T21:05:27.864Z,21.80
2022-12-19T21:07:54.970Z,21.25
2022-12-19T21:10:21.681Z,20.13
2022-12-19T21:12:48.764Z,18.92
2022-12-19T21:15:15.665Z,18.75
2022-12-19T21:17:42.748Z,19.23
2022-12-19T21:20:09.937Z,19.50
2022-12-19T21:22:37.016Z,20.10
2022-12-19T21:25:04.645Z,19.85
2022-12-19T21:27:31.733Z,17.67
2022-12-19T21:29:59.020Z,17.33
2022-12-19T21:32:26.155Z,17.70
2022-12-19T21:34:53.251Z,16.83
2022-12-19T21:37:20.304Z,16.08
2022-12-19T21:39:47.050Z,17.50
2022-12-19T21:42:14.219Z,17.48
2022-12-19T21:44:41.059Z,16.02
2022-12-19T21:47:08.221Z,16.67
2022-12-19T21:49:34.983Z,17.90
2022-12-19T21:52:02.171Z,17.58
2022-12-19T21:54:28.965Z,17.17
2022-12-19T21:56:56.011Z,16.40
2022-12-19T21:59:22.733Z,17.50
2022-12-19T22:01:50.249Z,15.93
2022-12-19T22:04:21.030Z,17.33
2022-12-19T22:06:48.575Z,16.73
2022-12-19T22:09:16.723Z,16.88
2022-12-19T22:11:43.974Z,17.30
2022-12-19T22:14:12.369Z,17.58
2022-12-19T22:16:39.490Z,18.27
2022-12-19T22:19:06.413Z,16.75
2022-12-19T22:21:33.512Z,17.15
2022-12-19T22:24:00.962Z,17.13
2022-12-19T22:26:29.455Z,14.77
2022-12-19T22:28:56.490Z,15.70
2022-12-19T22:31:26.204Z,16.15
2022-12-19T22:33:55.043Z,16.80
2022-12-19T22:36:27.973Z,16.02
2022-12-19T22:38:56.174Z,16.95
2022-12-19T22:41:23.276Z,17.08
2022-12-19T22:43:50.055Z,17.50
2022-12-19T22:46:17.762Z,16.48
2022-12-19T22:48:45.401Z,16.50
2022-12-19T22:51:12.357Z,17.02
2022-12-19T22:53:39.555Z,17.35
2022-12-19T22:56:08.262Z,16.85
2022-12-19T22:58:39.614Z,16.73
2022-12-19T23:01:22.815Z,16.15
2022-12-19T23:03:51.182Z,15.77
2022-12-19T23:06:18.417Z,15.50
2022-12-19T23:08:45.626Z,16.83
2022-12-19T23:11:15.718Z,15.82
2022-12-19T23:13:43.015Z,16.70
2022-12-19T23:16:10.385Z,16.92
2022-12-19T23:18:39.097Z,15.75
2022-12-19T23:21:12.975Z,17.38
2022-12-19T23:23:42.445Z,16.00
2022-12-19T23:26:15.505Z,17.35
2022-12-19T23:28:43.854Z,16.45
2022-12-19T23:31:12.209Z,17.05
2022-12-19T23:33:39.404Z,16.58
2022-12-19T23:36:06.460Z,16.95
2022-12-19T23:38:33.582Z,16.67
2022-12-19T23:41:01.028Z,16.40
2022-12-19T23:43:28.541Z,15.75
2022-12-19T23:45:55.444Z,15.90
2022-12-19T23:48:26.349Z,17.35
2022-12-19T23:51:00.198Z,17.15
2022-12-19T23:53:27.363Z,16.75
2022-12-19T23:55:54.138Z,16.00
2022-12-19T23:58:24.662Z,15.60
